sensor_id;sensor_type;location;lat;lon;timestamp;P1;durP1;ratioP1;P2;durP2;ratioP2
72645;SDS011;60687;53.876;10.674;2024-02-26T00:10:04;10.90;;;5.57;;
72645;SDS011;60687;53.876;10.674;2024-02-26T00:20:20;11.00;;;6.00;;
72645;SDS011;60687;53.876;10.674;2024-02-26T00:30:26;12.03;;;6.60;;
72645;SDS011;60687;53.876;10.674;2024-02-26T00:40:47;10.70;;;6.00;;
72645;SDS011;60687;53.876;10.674;2024-02-26T00:50:57;13.77;;;6.28;;
72645;SDS011;60687;53.876;10.674;2024-02-26T01:01:11;12.95;;;7.00;;
72645;SDS011;60687;53.876;10.674;2024-02-26T01:11:14;14.47;;;6.17;;
72645;SDS011;60687;53.876;10.674;2024-02-26T01:21:18;15.47;;;7.00;;
72645;SDS011;60687;53.876;10.674;2024-02-26T01:31:22;16.92;;;6.50;;
72645;SDS011;60687;53.876;10.674;2024-02-26T01:41:26;15.40;;;6.00;;
72645;SDS011;60687;53.876;10.674;2024-02-26T01:51:29;13.57;;;5.70;;
72645;SDS011;60687;53.876;10.674;2024-02-26T02:01:40;10.63;;;5.45;;
72645;SDS011;60687;53.876;10.674;2024-02-26T02:11:46;10.97;;;5.57;;
72645;SDS011;60687;53.876;10.674;2024-02-26T02:21:51;13.40;;;6.30;;
72645;SDS011;60687;53.876;10.674;2024-02-26T02:31:56;12.77;;;5.47;;
72645;SDS011;60687;53.876;10.674;2024-02-26T02:42:01;12.35;;;5.85;;
72645;SDS011;60687;53.876;10.674;2024-02-26T02:52:04;11.67;;;4.97;;
72645;SDS011;60687;53.876;10.674;2024-02-26T03:02:09;13.63;;;6.80;;
72645;SDS011;60687;53.876;10.674;2024-02-26T03:12:13;17.13;;;7.03;;
72645;SDS011;60687;53.876;10.674;2024-02-26T03:22:18;11.70;;;6.00;;
72645;SDS011;60687;53.876;10.674;2024-02-26T03:32:23;15.37;;;6.07;;
72645;SDS011;60687;53.876;10.674;2024-02-26T03:42:29;15.10;;;5.95;;
72645;SDS011;60687;53.876;10.674;2024-02-26T03:52:32;14.97;;;5.53;;
72645;SDS011;60687;53.876;10.674;2024-02-26T04:02:38;13.00;;;6.03;;
72645;SDS011;60687;53.876;10.674;2024-02-26T04:12:41;11.20;;;4.78;;
72645;SDS011;60687;53.876;10.674;2024-02-26T04:22:45;9.82;;;5.05;;
72645;SDS011;60687;53.876;10.674;2024-02-26T04:32:49;12.50;;;5.47;;
72645;SDS011;60687;53.876;10.674;2024-02-26T04:42:55;14.97;;;6.43;;
72645;SDS011;60687;53.876;10.674;2024-02-26T04:52:57;12.90;;;5.43;;
72645;SDS011;60687;53.876;10.674;2024-02-26T05:03:04;17.83;;;5.83;;
72645;SDS011;60687;53.876;10.674;2024-02-26T05:13:08;16.40;;;5.50;;
72645;SDS011;60687;53.876;10.674;2024-02-26T05:23:13;12.27;;;5.72;;
72645;SDS011;60687;53.876;10.674;2024-02-26T05:33:15;12.80;;;5.53;;
72645;SDS011;60687;53.876;10.674;2024-02-26T05:43:20;13.27;;;5.90;;
72645;SDS011;60687;53.876;10.674;2024-02-26T05:53:27;16.70;;;7.40;;
72645;SDS011;60687;53.876;10.674;2024-02-26T06:03:31;12.60;;;6.60;;
72645;SDS011;60687;53.876;10.674;2024-02-26T06:13:34;14.43;;;6.57;;
72645;SDS011;60687;53.876;10.674;2024-02-26T06:23:40;14.97;;;6.50;;
72645;SDS011;60687;53.876;10.674;2024-02-26T06:33:42;13.43;;;6.65;;
72645;SDS011;60687;53.876;10.674;2024-02-26T06:43:49;12.53;;;6.63;;
72645;SDS011;60687;53.876;10.674;2024-02-26T06:53:54;12.37;;;5.87;;
72645;SDS011;60687;53.876;10.674;2024-02-26T07:04:03;16.17;;;7.03;;
72645;SDS011;60687;53.876;10.674;2024-02-26T07:14:06;17.73;;;6.00;;
72645;SDS011;60687;53.876;10.674;2024-02-26T07:24:15;16.43;;;7.60;;
72645;SDS011;60687;53.876;10.674;2024-02-26T07:34:17;18.42;;;6.95;;
72645;SDS011;60687;53.876;10.674;2024-02-26T07:44:30;16.00;;;6.13;;
72645;SDS011;60687;53.876;10.674;2024-02-26T07:54:33;15.53;;;7.10;;
72645;SDS011;60687;53.876;10.674;2024-02-26T08:04:37;17.57;;;8.73;;
72645;SDS011;60687;53.876;10.674;2024-02-26T08:14:40;18.27;;;9.00;;
72645;SDS011;60687;53.876;10.674;2024-02-26T08:24:45;20.87;;;10.03;;
72645;SDS011;60687;53.876;10.674;2024-02-26T08:34:50;25.23;;;11.20;;
72645;SDS011;60687;53.876;10.674;2024-02-26T08:44:55;31.05;;;11.65;;
72645;SDS011;60687;53.876;10.674;2024-02-26T08:55:01;23.40;;;9.90;;
72645;SDS011;60687;53.876;10.674;2024-02-26T09:05:11;34.23;;;12.30;;
72645;SDS011;60687;53.876;10.674;2024-02-26T09:15:30;34.33;;;13.30;;
72645;SDS011;60687;53.876;10.674;2024-02-26T09:25:47;27.55;;;10.60;;
72645;SDS011;60687;53.876;10.674;2024-02-26T09:35:50;28.57;;;10.70;;
72645;SDS011;60687;53.876;10.674;2024-02-26T09:46:21;26.40;;;9.33;;
72645;SDS011;60687;53.876;10.674;2024-02-26T09:56:31;26.17;;;10.10;;
72645;SDS011;60687;53.876;10.674;2024-02-26T10:06:45;25.13;;;10.07;;
72645;SDS011;60687;53.876;10.674;2024-02-26T10:16:52;26.97;;;9.70;;
72645;SDS011;60687;53.876;10.674;2024-02-26T10:27:03;22.27;;;9.48;;
72645;SDS011;60687;53.876;10.674;2024-02-26T10:37:17;20.03;;;7.40;;
72645;SDS011;60687;53.876;10.674;2024-02-26T10:47:23;24.63;;;10.13;;
72645;SDS011;60687;53.876;10.674;2024-02-26T10:57:42;22.17;;;9.18;;
72645;SDS011;60687;53.876;10.674;2024-02-26T11:07:49;24.42;;;10.35;;
72645;SDS011;60687;53.876;10.674;2024-02-26T11:17:59;21.43;;;9.40;;
72645;SDS011;60687;53.876;10.674;2024-02-26T11:28:08;30.63;;;14.07;;
72645;SDS011;60687;53.876;10.674;2024-02-26T11:38:17;54.42;;;19.95;;
72645;SDS011;60687;53.876;10.674;2024-02-26T11:48:25;39.73;;;16.77;;
72645;SDS011;60687;53.876;10.674;2024-02-26T11:58:31;28.30;;;11.07;;
72645;SDS011;60687;53.876;10.674;2024-02-26T12:08:39;22.90;;;9.98;;
72645;SDS011;60687;53.876;10.674;2024-02-26T12:18:46;25.10;;;10.87;;
72645;SDS011;60687;53.876;10.674;2024-02-26T12:28:54;26.13;;;10.77;;
72645;SDS011;60687;53.876;10.674;2024-02-26T12:38:59;25.77;;;10.57;;
72645;SDS011;60687;53.876;10.674;2024-02-26T12:49:04;30.77;;;12.38;;
72645;SDS011;60687;53.876;10.674;2024-02-26T12:59:10;26.87;;;11.27;;
72645;SDS011;60687;53.876;10.674;2024-02-26T13:09:14;21.07;;;8.47;;
72645;SDS011;60687;53.876;10.674;2024-02-26T13:19:20;21.10;;;8.85;;
72645;SDS011;60687;53.876;10.674;2024-02-26T13:29:24;21.43;;;9.37;;
72645;SDS011;60687;53.876;10.674;2024-02-26T13:39:28;18.20;;;8.97;;
72645;SDS011;60687;53.876;10.674;2024-02-26T13:49:32;18.83;;;9.02;;
72645;SDS011;60687;53.876;10.674;2024-02-26T13:59:37;18.33;;;8.17;;
72645;SDS011;60687;53.876;10.674;2024-02-26T14:09:44;18.00;;;8.40;;
72645;SDS011;60687;53.876;10.674;2024-02-26T14:19:49;17.13;;;8.15;;
72645;SDS011;60687;53.876;10.674;2024-02-26T14:29:56;19.27;;;8.93;;
72645;SDS011;60687;53.876;10.674;2024-02-26T14:39:58;17.63;;;7.77;;
72645;SDS011;60687;53.876;10.674;2024-02-26T14:50:05;18.40;;;8.10;;
72645;SDS011;60687;53.876;10.674;2024-02-26T15:00:08;17.55;;;7.93;;
72645;SDS011;60687;53.876;10.674;2024-02-26T15:10:13;20.33;;;9.07;;
72645;SDS011;60687;53.876;10.674;2024-02-26T15:20:17;15.37;;;7.13;;
72645;SDS011;60687;53.876;10.674;2024-02-26T15:30:24;19.45;;;8.60;;
72645;SDS011;60687;53.876;10.674;2024-02-26T15:40:30;17.90;;;8.03;;
72645;SDS011;60687;53.876;10.674;2024-02-26T15:50:34;16.60;;;7.63;;
72645;SDS011;60687;53.876;10.674;2024-02-26T16:00:39;14.25;;;6.50;;
72645;SDS011;60687;53.876;10.674;2024-02-26T16:10:45;13.43;;;6.18;;
72645;SDS011;60687;53.876;10.674;2024-02-26T16:20:48;13.20;;;5.90;;
72645;SDS011;60687;53.876;10.674;2024-02-26T16:30:52;12.80;;;6.07;;
72645;SDS011;60687;53.876;10.674;2024-02-26T16:40:54;14.35;;;6.13;;
72645;SDS011;60687;53.876;10.674;2024-02-26T16:51:00;12.90;;;5.80;;
72645;SDS011;60687;53.876;10.674;2024-02-26T17:01:03;12.63;;;5.43;;
72645;SDS011;60687;53.876;10.674;2024-02-26T17:11:21;12.98;;;6.03;;
72645;SDS011;60687;53.876;10.674;2024-02-26T17:21:26;13.43;;;5.40;;
72645;SDS011;60687;53.876;10.674;2024-02-26T17:31:30;13.80;;;6.00;;
72645;SDS011;60687;53.876;10.674;2024-02-26T17:41:37;13.82;;;6.00;;
72645;SDS011;60687;53.876;10.674;2024-02-26T17:51:47;12.85;;;5.40;;
72645;SDS011;60687;53.876;10.674;2024-02-26T18:01:54;14.30;;;6.53;;
72645;SDS011;60687;53.876;10.674;2024-02-26T18:11:59;15.00;;;6.70;;
72645;SDS011;60687;53.876;10.674;2024-02-26T18:22:14;15.55;;;7.22;;
72645;SDS011;60687;53.876;10.674;2024-02-26T18:32:22;14.97;;;6.77;;
72645;SDS011;60687;53.876;10.674;2024-02-26T18:52:53;15.60;;;7.22;;
72645;SDS011;60687;53.876;10.674;2024-02-26T19:02:59;16.23;;;7.97;;
72645;SDS011;60687;53.876;10.674;2024-02-26T19:13:10;15.13;;;7.30;;
72645;SDS011;60687;53.876;10.674;2024-02-26T19:23:12;14.27;;;7.00;;
72645;SDS011;60687;53.876;10.674;2024-02-26T19:33:28;15.68;;;7.25;;
72645;SDS011;60687;53.876;10.674;2024-02-26T19:43:48;14.97;;;7.50;;
72645;SDS011;60687;53.876;10.674;2024-02-26T19:53:52;17.10;;;8.43;;
72645;SDS011;60687;53.876;10.674;2024-02-26T20:04:01;16.55;;;7.88;;
72645;SDS011;60687;53.876;10.674;2024-02-26T20:14:20;16.60;;;8.20;;
72645;SDS011;60687;53.876;10.674;2024-02-26T20:24:28;19.93;;;8.43;;
72645;SDS011;60687;53.876;10.674;2024-02-26T20:34:49;22.15;;;8.95;;
72645;SDS011;60687;53.876;10.674;2024-02-26T20:44:52;23.03;;;9.60;;
72645;SDS011;60687;53.876;10.674;2024-02-26T20:55:04;22.67;;;9.13;;
72645;SDS011;60687;53.876;10.674;2024-02-26T21:05:13;25.35;;;10.65;;
72645;SDS011;60687;53.876;10.674;2024-02-26T21:15:22;25.98;;;10.88;;
72645;SDS011;60687;53.876;10.674;2024-02-26T21:25:42;24.63;;;10.90;;
72645;SDS011;60687;53.876;10.674;2024-02-26T21:36:05;26.83;;;10.63;;
72645;SDS011;60687;53.876;10.674;2024-02-26T21:46:10;28.30;;;11.38;;
72645;SDS011;60687;53.876;10.674;2024-02-26T21:56:14;31.60;;;12.80;;
72645;SDS011;60687;53.876;10.674;2024-02-26T22:06:19;25.73;;;10.40;;
72645;SDS011;60687;53.876;10.674;2024-02-26T22:16:32;30.42;;;11.90;;
72645;SDS011;60687;53.876;10.674;2024-02-26T22:26:42;31.93;;;12.10;;
72645;SDS011;60687;53.876;10.674;2024-02-26T22:36:47;29.93;;;12.17;;
72645;SDS011;60687;53.876;10.674;2024-02-26T22:46:50;28.10;;;11.88;;
72645;SDS011;60687;53.876;10.674;2024-02-26T22:56:57;29.60;;;11.75;;
72645;SDS011;60687;53.876;10.674;2024-02-26T23:06:59;28.80;;;11.50;;
72645;SDS011;60687;53.876;10.674;2024-02-26T23:17:04;27.43;;;10.53;;
72645;SDS011;60687;53.876;10.674;2024-02-26T23:27:07;28.55;;;10.65;;
72645;SDS011;60687;53.876;10.674;2024-02-26T23:37:11;26.17;;;10.93;;
72645;SDS011;60687;53.876;10.674;2024-02-26T23:47:13;24.97;;;11.17;;
72645;SDS011;60687;53.876;10.674;2024-02-26T23:57:19;26.45;;;11.80;;
